Latest Weather Observations for Wattamolla

IDN60801

Issued at 8:05 am EST Wednesday 24 September 2014 (issued every 30 minutes, with the page automatically refreshed every 10 minutes)

About weather observations | Map of weather stations | Latest weather observations for NSW | Other Formats
Station Details ID: 066208 Name: WATTAMOLLA AWS Lat: -34.14 Lon: 151.12 Height: 44.0 m
Data from the previous 72 hours. | See also: Recent months for locations in New South Wales
Date/Time
EST
Temp
°C
App
Temp
°C
Dew
Point
Rel
Hum
%
Delta-T
°C
Wind Press
QNH
hPa
Press
MSL
hPa
Rain
since 9 am
mm
Dir
 
Spd
km/h
Gust
km/h
Spd
kts
Gust
kts
24/08:00am - - - - - N 13 17 7 9 - - -
24/07:30am - - - - - N 13 17 7 9 - - -
24/07:00am - - - - - N 13 15 7 8 - - -
24/06:30am - - - - - N 9 13 5 7 - - -
24/06:00am - - - - - NNW 11 15 6 8 - - -
24/05:30am - - - - - N 13 17 7 9 - - -
24/05:00am - - - - - N 13 15 7 8 - - -
24/04:30am - - - - - N 13 17 7 9 - - -
24/04:00am - - - - - N 15 17 8 9 - - -
24/03:30am - - - - - N 15 17 8 9 - - -
24/03:00am - - - - - N 17 20 9 11 - - -
24/02:30am - - - - - N 17 22 9 12 - - -
24/02:00am - - - - - N 17 20 9 11 - - -
24/01:30am - - - - - N 15 19 8 10 - - -
24/01:00am - - - - - N 17 19 9 10 - - -
24/12:30am - - - - - N 15 20 8 11 - - -
24/12:00am - - - - - N 15 19 8 10 - - -
 
Date/Time
EST
Temp
°C
App
Temp
°C
Dew
Point
Rel
Hum
%
Delta-T
°C
Wind Press
QNH
hPa
Press
MSL
hPa
Rain
since 9 am
mm
Dir
 
Spd
km/h
Gust
km/h
Spd
kts
Gust
kts
23/11:30pm - - - - - N 15 19 8 10 - - -
23/11:00pm - - - - - N 15 19 8 10 - - -
23/10:30pm - - - - - N 17 19 9 10 - - -
23/10:00pm - - - - - N 17 19 9 10 - - -
23/09:30pm - - - - - N 19 20 10 11 - - -
23/09:00pm - - - - - N 17 19 9 10 - - -
23/08:30pm - - - - - N 17 22 9 12 - - -
23/08:00pm - - - - - N 17 20 9 11 - - -
23/07:30pm - - - - - N 17 24 9 13 - - -
23/07:00pm - - - - - N 19 24 10 13 - - -
23/06:30pm - - - - - NNE 20 28 11 15 - - -
23/06:00pm - - - - - NNE 20 28 11 15 - - -
23/05:30pm - - - - - NNE 20 30 11 16 - - -
23/05:00pm - - - - - NNE 20 30 11 16 - - -
23/04:30pm - - - - - NE 22 33 12 18 - - -
23/04:00pm - - - - - NE 24 33 13 18 - - -
23/03:30pm - - - - - NE 24 37 13 20 - - -
23/03:00pm - - - - - NE 26 37 14 20 - - -
23/02:30pm - - - - - NE 24 37 13 20 - - -
23/02:00pm - - - - - - - - - - - - -
23/01:30pm - - - - - NE 24 33 13 18 - - -
23/01:00pm - - - - - NE 22 32 12 17 - - -
23/12:30pm - - - - - NE 22 30 12 16 - - -
23/12:00pm - - - - - ENE 22 32 12 17 - - -
23/11:30am - - - - - ENE 20 28 11 15 - - -
23/11:00am - - - - - N 13 20 7 11 - - -
23/10:30am - - - - - N 17 24 9 13 - - -
23/10:00am - - - - - N 15 20 8 11 - - -
23/09:30am - - - - - N 19 28 10 15 - - -
23/09:00am - - - - - N 13 24 7 13 - - -
23/08:30am - - - - - N 17 24 9 13 - - -
23/08:00am - - - - - NNW 13 24 7 13 - - -
23/07:30am - - - - - NNW 15 22 8 12 - - -
23/07:00am - - - - - NNW 15 22 8 12 - - -
23/06:30am - - - - - N 13 17 7 9 - - -
23/06:00am - - - - - NNW 13 15 7 8 - - -
23/05:30am - - - - - NW 15 19 8 10 - - -
23/05:00am - - - - - NW 15 19 8 10 - - -
23/04:30am - - - - - NNW 11 15 6 8 - - -
23/04:00am - - - - - NNW 11 13 6 7 - - -
23/03:30am - - - - - NNW 13 15 7 8 - - -
23/03:00am - - - - - NNW 13 17 7 9 - - -
23/02:30am - - - - - NNW 13 15 7 8 - - -
23/02:00am - - - - - NNW 15 17 8 9 - - -
23/01:30am - - - - - NW 15 19 8 10 - - -
23/01:00am - - - - - NW 15 19 8 10 - - -
23/12:30am - - - - - NW 15 19 8 10 - - -
23/12:00am - - - - - NW 15 17 8 9 - - -
 
Date/Time
EST
Temp
°C
App
Temp
°C
Dew
Point
Rel
Hum
%
Delta-T
°C
Wind Press
QNH
hPa
Press
MSL
hPa
Rain
since 9 am
mm
Dir
 
Spd
km/h
Gust
km/h
Spd
kts
Gust
kts
22/11:30pm - - - - - NW 15 17 8 9 - - -
22/11:00pm - - - - - NW 17 19 9 10 - - -
22/10:30pm - - - - - NW 17 17 9 9 - - -
22/10:00pm - - - - - NW 17 19 9 10 - - -
22/09:30pm - - - - - NW 17 19 9 10 - - -
22/09:00pm - - - - - NNW 15 17 8 9 - - -
22/08:30pm - - - - - NNW 13 17 7 9 - - -
22/08:00pm - - - - - NNW 13 15 7 8 - - -
22/07:30pm - - - - - N 13 15 7 8 - - -
22/07:00pm - - - - - NNE 13 15 7 8 - - -
22/06:30pm - - - - - NNE 11 15 6 8 - - -
22/06:00pm - - - - - NE 15 20 8 11 - - -
22/05:30pm - - - - - NE 15 20 8 11 - - -
22/05:00pm - - - - - NE 17 22 9 12 - - -
22/04:30pm - - - - - NE 15 22 8 12 - - -
22/04:00pm - - - - - NE 15 20 8 11 - - -
22/03:30pm - - - - - ENE 15 26 8 14 - - -
22/03:00pm - - - - - ENE 17 26 9 14 - - -
22/02:30pm - - - - - E 19 26 10 14 - - -
22/02:00pm - - - - - E 17 26 9 14 - - -
22/01:30pm - - - - - E 15 22 8 12 - - -
22/01:00pm - - - - - E 15 19 8 10 - - -
22/12:30pm - - - - - SE 13 17 7 9 - - -
22/12:00pm - - - - - SE 13 19 7 10 - - -
22/11:30am - - - - - SE 15 17 8 9 - - -
22/11:00am - - - - - SSE 11 13 6 7 - - -
22/10:30am - - - - - SSE 13 15 7 8 - - -
22/10:00am - - - - - SSE 13 15 7 8 - - -
22/09:30am - - - - - SSE 15 20 8 11 - - -
22/09:00am - - - - - SSE 17 20 9 11 - - -
22/08:30am - - - - - S 15 20 8 11 - - -
22/08:00am - - - - - S 15 19 8 10 - - -
22/07:30am - - - - - S 9 17 5 9 - - -
22/07:00am - - - - - WSW 11 11 6 6 - - -
22/06:30am - - - - - SW 9 13 5 7 - - -
22/06:00am - - - - - S 17 20 9 11 - - -
22/05:30am - - - - - S 20 24 11 13 - - -
22/05:00am - - - - - SSW 11 20 6 11 - - -
22/04:30am - - - - - S 15 26 8 14 - - -
22/04:00am - - - - - S 17 22 9 12 - - -
22/03:30am - - - - - S 19 30 10 16 - - -
22/03:00am - - - - - S 19 28 10 15 - - -
22/02:30am - - - - - S 24 30 13 16 - - -
22/02:00am - - - - - S 24 30 13 16 - - -
22/01:30am - - - - - SW 13 17 7 9 - - -
22/01:00am - - - - - SW 15 20 8 11 - - -
22/12:30am - - - - - WSW 11 15 6 8 - - -
22/12:00am - - - - - S 11 17 6 9 - - -
 
Date/Time
EST
Temp
°C
App
Temp
°C
Dew
Point
Rel
Hum
%
Delta-T
°C
Wind Press
QNH
hPa
Press
MSL
hPa
Rain
since 9 am
mm
Dir
 
Spd
km/h
Gust
km/h
Spd
kts
Gust
kts
21/11:30pm - - - - - SSW 9 13 5 7 - - -
21/11:00pm - - - - - SSW 9 13 5 7 - - -
21/10:30pm - - - - - WNW 7 9 4 5 - - -
21/10:00pm - - - - - NNW 4 9 2 5 - - -
21/09:30pm - - - - - SSW 9 15 5 8 - - -
21/09:00pm - - - - - S 15 19 8 10 - - -
21/08:30pm - - - - - SSE 15 20 8 11 - - -
21/08:00pm - - - - - S 22 32 12 17 - - -
21/07:30pm - - - - - S 26 32 14 17 - - -
21/07:00pm - - - - - S 24 33 13 18 - - -
21/06:30pm - - - - - SSE 22 26 12 14 - - -
21/06:00pm - - - - - SSE 22 26 12 14 - - -
21/05:30pm - - - - - S 22 30 12 16 - - -
21/05:00pm - - - - - SSE 26 33 14 18 - - -
21/04:30pm - - - - - SSE 24 33 13 18 - - -
21/04:00pm - - - - - SSE 19 26 10 14 - - -
21/03:30pm - - - - - S 20 28 11 15 - - -
21/03:00pm - - - - - S 17 24 9 13 - - -
21/02:30pm - - - - - SSE 19 24 10 13 - - -
21/02:00pm - - - - - SSE 19 24 10 13 - - -
21/01:30pm - - - - - S 17 24 9 13 - - -
21/01:00pm - - - - - SSE 19 26 10 14 - - -
21/12:30pm - - - - - S 19 26 10 14 - - -
21/12:00pm - - - - - S 24 32 13 17 - - -
21/11:30am - - - - - S 28 32 15 17 - - -
21/11:00am - - - - - S 30 37 16 20 - - -
21/10:30am - - - - - S 32 35 17 19 - - -
21/10:00am - - - - - S 33 37 18 20 - - -
21/09:30am - - - - - S 33 41 18 22 - - -
21/09:00am - - - - - S 33 44 18 24 - - -
21/08:30am - - - - - - - - - - - - -

Other Formats:

Comma delimited format used in spreadsheet applications
http://www.bom.gov.au/fwo/IDN60801/IDN60801.95752.axf

JavaScript Object Notation format (JSON) in row-major order
http://www.bom.gov.au/fwo/IDN60801/IDN60801.95752.json